Impacts METAR Board INFO
IDs:

KCLE - Cleveland/Hopkins In, OH, US

Updated at: 1504 UTC 13 Dec 2017
Potential Impact None Slight Moderate High
Time13/03Z 13/04Z 13/05Z 13/06Z 13/07Z 13/08Z 13/09Z 13/10Z 13/11Z 13/12Z 13/13Z 13/14Z 13/15Z
VIS10 10 10 10 9 8 9 10 4 1.25 10 10 10
CIG55 45 45 44 44 38 36 40 30 13 36 90 70
CoverOVCOVCBKNOVCOVCOVCOVCOVCOVCOVCOVCOVCOVC
FltCatVFRVFRVFRVFRVFRVFRVFRVFRMVFRIFRVFRVFRVFR
WX---------SN-SN-SN---SN-SN BR------
WDir310310320300290310290290240250230220210
WSpd23 19 16 13 9 13 10 15 12 10 7 9 8
WGst33 24 23 21 -- -- -- -- -- -- -- -- --
Raw hourly METARs
KCLE 130251Z 31023G33KT 10SM SCT047 OVC055 M07/M16 A2987 RMK AO2 PK WND 32033/0208 SLP125 T10721156 58001
KCLE 130351Z 31019G24KT 10SM OVC045 M07/M16 A2987 RMK AO2 PK WND 30029/0314 SLP127 T10721156
KCLE 130451Z 32016G23KT 10SM BKN045 M07/M16 A2986 RMK AO2 PK WND 31026/0427 SLP125 T10721161 400171078
KCLE 130551Z 30013G21KT 10SM OVC044 M07/M15 A2985 RMK AO2 PK WND 31026/0506 SLP121 4/001 T10721150 11067 21078 58005 $
KCLE 130651Z 29009KT 9SM -SN OVC044 M07/M15 A2985 RMK AO2 SNB40 SLP120 P0000 T10721150 $
KCLE 130751Z 31013KT 8SM -SN OVC038 M07/M13 A2986 RMK AO2 SLP122 P0000 T10671133 $
KCLE 130851Z 29010KT 9SM -SN OVC036 M07/M13 A2985 RMK AO2 SLP121 P0000 60000 T10671133 50000 $
KCLE 130951Z 29015KT 10SM OVC040 M07/M14 A2986 RMK AO2 SNE28 SLP125 P0000 T10671139 $
KCLE 131051Z 24012KT 4SM -SN OVC030 M08/M11 A2987 RMK AO2 SNB08 SLP129 P0000 T10831111 $
KCLE 131151Z 25010KT 1 1/4SM -SN BR BKN013 OVC028 M08/M11 A2988 RMK AO2 SLP130 4/001 P0001 60001 70004 T10831106 11067 21083 51008 $
KCLE 131251Z 23007KT 10SM OVC036 M08/M12 A2986 RMK AO2 SNE34 SLP124 P0001 T10781122 $
KCLE 131351Z 22009KT 10SM SCT035 OVC090 M07/M12 A2985 RMK AO2 SLP120 T10721122 $
KCLE 131451Z 21008KT 10SM BKN070 OVC085 M07/M11 A2984 RMK AO2 SLP115 60001 T10671111 56013 $